Aérodrome :
LOGIN :

S'inscrire | Disclaimer

   EN    FR    IT 

 










Légende :    VFR   VFR Marginal   IFR   IFR Intensif   IFR Très Intensif
Visi : 
Plafond : 
>= 8 km
>= 3000ft
5 à 8 km
1000 à 3000 ft
1500m à 5 km
500 à 1000 ft
800 à 1500m
200 à 500 ft
< 800m
< 200 ft
Symboles :   Orages  Brouillard  Fortes neiges  Fortes précipitations  Vent > 20 kt
SIGMETs :   Divers  Orages  Givrage  Turbulence  Onde Orograph.  Cendres Volcan.






- Altitude de l'aérodrome : 231 ft
- Code IATA : N/A


EGSY - MOD Saint Athan

DERNIER METAR :
  • 162220Z AUTO 27008KT 9999 FEW018/// 13/09 Q1007

METARs EXPIRÉS :
  • 162150Z AUTO 26008KT 9999 NCD 13/10 Q1006
  • 162120Z AUTO 26009KT 9999 FEW017/// 13/10 Q1006
  • 162050Z AUTO 27008KT 9999 FEW018/// 13/10 Q1006
  • 162020Z AUTO 26009KT 9999 NCD 13/10 Q1006
  • 161950Z AUTO 27010KT 9999 NCD 14/10 Q1005
  • 161920Z AUTO 27011KT 9999 NCD 14/10 Q1005
  • 161850Z AUTO 27013KT 9999 NCD 15/10 Q1005
  • 161820Z AUTO 27013KT 9999 NCD 15/09 Q1005
  • 161750Z AUTO 28015KT 9999 NCD 15/09 Q1004

TAF TAF EGSY
Valide du 16 à 21h jusqu'au 17 à 06h UTC


161955Z 1621/1706 27009KT 9999 SCT025



MET'MAP, la Météo Aéronautique d'un coup d'oeil ! - Copyright ORBIFLY Décembre 2007 - Disclaimer

ORBIFLY MET'MAP TEAM :

Programmation & Développement : Alexandra Zaïnal
Sur une idée originale de : Baudouin d'Aumeries
Soutien technique & logistique : Manuel Goepfert
Assistance : Marc-Olivier Méhu




SOURCES & CREDITS :

   NOAA